sensor_id;sensor_type;location;lat;lon;timestamp;P1;durP1;ratioP1;P2;durP2;ratioP2
43504;SDS011;29098;48.184;16.298;2024-03-23T00:55:51;11.23;;;7.40;;
43504;SDS011;29098;48.184;16.298;2024-03-23T00:58:16;12.10;;;5.88;;
43504;SDS011;29098;48.184;16.298;2024-03-23T01:00:42;9.02;;;6.53;;
43504;SDS011;29098;48.184;16.298;2024-03-23T01:03:07;9.02;;;6.05;;
43504;SDS011;29098;48.184;16.298;2024-03-23T01:05:33;12.82;;;6.82;;
43504;SDS011;29098;48.184;16.298;2024-03-23T01:07:58;9.35;;;6.05;;
43504;SDS011;29098;48.184;16.298;2024-03-23T01:10:24;10.82;;;6.57;;
43504;SDS011;29098;48.184;16.298;2024-03-23T01:12:49;9.70;;;6.15;;
43504;SDS011;29098;48.184;16.298;2024-03-23T01:15:15;10.35;;;6.28;;
43504;SDS011;29098;48.184;16.298;2024-03-23T01:17:40;11.40;;;6.32;;
43504;SDS011;29098;48.184;16.298;2024-03-23T01:20:06;10.32;;;6.30;;
43504;SDS011;29098;48.184;16.298;2024-03-23T01:22:32;12.23;;;6.75;;
43504;SDS011;29098;48.184;16.298;2024-03-23T01:24:58;11.10;;;7.05;;
43504;SDS011;29098;48.184;16.298;2024-03-23T01:27:23;11.65;;;5.82;;
43504;SDS011;29098;48.184;16.298;2024-03-23T01:29:49;8.15;;;5.65;;
43504;SDS011;29098;48.184;16.298;2024-03-23T01:32:14;8.35;;;6.13;;
43504;SDS011;29098;48.184;16.298;2024-03-23T01:34:39;9.63;;;6.05;;
43504;SDS011;29098;48.184;16.298;2024-03-23T01:37:05;8.43;;;5.63;;
43504;SDS011;29098;48.184;16.298;2024-03-23T01:39:31;8.85;;;5.38;;
43504;SDS011;29098;48.184;16.298;2024-03-23T01:41:56;12.00;;;5.97;;
43504;SDS011;29098;48.184;16.298;2024-03-23T01:44:22;8.95;;;5.85;;
43504;SDS011;29098;48.184;16.298;2024-03-23T01:46:47;11.27;;;6.10;;
43504;SDS011;29098;48.184;16.298;2024-03-23T01:49:13;10.35;;;6.00;;
43504;SDS011;29098;48.184;16.298;2024-03-23T01:51:39;11.90;;;6.05;;
43504;SDS011;29098;48.184;16.298;2024-03-23T01:54:05;10.00;;;6.47;;
43504;SDS011;29098;48.184;16.298;2024-03-23T01:56:35;8.13;;;5.60;;
43504;SDS011;29098;48.184;16.298;2024-03-23T01:59:04;12.77;;;6.13;;
43504;SDS011;29098;48.184;16.298;2024-03-23T02:01:30;7.95;;;5.32;;
43504;SDS011;29098;48.184;16.298;2024-03-23T02:03:55;8.52;;;5.97;;
43504;SDS011;29098;48.184;16.298;2024-03-23T02:06:21;11.00;;;5.93;;
43504;SDS011;29098;48.184;16.298;2024-03-23T02:08:49;8.25;;;5.15;;
43504;SDS011;29098;48.184;16.298;2024-03-23T02:11:14;7.55;;;5.85;;
43504;SDS011;29098;48.184;16.298;2024-03-23T02:13:40;10.43;;;6.13;;
43504;SDS011;29098;48.184;16.298;2024-03-23T02:16:05;8.50;;;5.95;;
43504;SDS011;29098;48.184;16.298;2024-03-23T02:18:31;8.98;;;5.28;;
43504;SDS011;29098;48.184;16.298;2024-03-23T02:21:00;7.13;;;5.22;;
43504;SDS011;29098;48.184;16.298;2024-03-23T02:23:25;10.02;;;5.47;;
43504;SDS011;29098;48.184;16.298;2024-03-23T02:25:51;8.25;;;5.53;;
43504;SDS011;29098;48.184;16.298;2024-03-23T02:28:18;10.65;;;5.15;;
43504;SDS011;29098;48.184;16.298;2024-03-23T02:30:44;10.00;;;5.57;;
43504;SDS011;29098;48.184;16.298;2024-03-23T02:33:09;8.13;;;5.88;;
43504;SDS011;29098;48.184;16.298;2024-03-23T02:35:35;7.65;;;5.65;;
43504;SDS011;29098;48.184;16.298;2024-03-23T02:38:00;9.73;;;5.30;;
43504;SDS011;29098;48.184;16.298;2024-03-23T02:40:26;9.95;;;5.63;;
43504;SDS011;29098;48.184;16.298;2024-03-23T02:42:52;10.05;;;6.10;;
43504;SDS011;29098;48.184;16.298;2024-03-23T02:45:18;8.95;;;5.50;;
43504;SDS011;29098;48.184;16.298;2024-03-23T02:47:43;8.38;;;5.13;;
43504;SDS011;29098;48.184;16.298;2024-03-23T02:50:09;10.43;;;5.68;;
43504;SDS011;29098;48.184;16.298;2024-03-23T02:52:35;10.70;;;5.47;;
43504;SDS011;29098;48.184;16.298;2024-03-23T02:55:01;12.15;;;6.25;;
43504;SDS011;29098;48.184;16.298;2024-03-23T02:57:27;9.25;;;6.53;;
43504;SDS011;29098;48.184;16.298;2024-03-23T02:59:53;8.50;;;5.20;;
43504;SDS011;29098;48.184;16.298;2024-03-23T03:02:19;10.20;;;5.32;;
43504;SDS011;29098;48.184;16.298;2024-03-23T03:04:46;7.88;;;5.65;;
43504;SDS011;29098;48.184;16.298;2024-03-23T03:07:12;8.30;;;5.68;;
43504;SDS011;29098;48.184;16.298;2024-03-23T03:09:37;7.90;;;5.93;;
43504;SDS011;29098;48.184;16.298;2024-03-23T03:12:04;8.98;;;5.32;;
43504;SDS011;29098;48.184;16.298;2024-03-23T03:14:30;8.00;;;5.90;;
43504;SDS011;29098;48.184;16.298;2024-03-23T03:16:56;10.60;;;6.18;;
43504;SDS011;29098;48.184;16.298;2024-03-23T03:19:21;9.52;;;5.53;;
43504;SDS011;29098;48.184;16.298;2024-03-23T03:21:47;7.80;;;5.32;;
43504;SDS011;29098;48.184;16.298;2024-03-23T03:24:16;10.10;;;5.50;;
43504;SDS011;29098;48.184;16.298;2024-03-23T03:26:41;10.02;;;6.28;;
43504;SDS011;29098;48.184;16.298;2024-03-23T03:29:07;9.52;;;5.78;;
43504;SDS011;29098;48.184;16.298;2024-03-23T03:31:33;9.88;;;5.93;;
43504;SDS011;29098;48.184;16.298;2024-03-23T03:33:58;12.80;;;5.63;;
43504;SDS011;29098;48.184;16.298;2024-03-23T03:36:24;7.97;;;5.88;;
43504;SDS011;29098;48.184;16.298;2024-03-23T03:38:49;8.82;;;5.82;;
43504;SDS011;29098;48.184;16.298;2024-03-23T03:41:15;10.40;;;5.45;;
43504;SDS011;29098;48.184;16.298;2024-03-23T03:43:40;7.47;;;5.30;;
43504;SDS011;29098;48.184;16.298;2024-03-23T03:46:06;10.43;;;6.40;;
43504;SDS011;29098;48.184;16.298;2024-03-23T03:48:33;9.63;;;6.10;;
43504;SDS011;29098;48.184;16.298;2024-03-23T03:50:58;8.25;;;5.30;;
43504;SDS011;29098;48.184;16.298;2024-03-23T03:53:24;9.68;;;5.65;;
43504;SDS011;29098;48.184;16.298;2024-03-23T03:55:49;10.95;;;5.88;;
43504;SDS011;29098;48.184;16.298;2024-03-23T03:58:15;10.65;;;5.25;;
43504;SDS011;29098;48.184;16.298;2024-03-23T04:00:40;10.00;;;5.60;;
43504;SDS011;29098;48.184;16.298;2024-03-23T04:03:06;9.73;;;5.97;;
43504;SDS011;29098;48.184;16.298;2024-03-23T04:05:31;9.68;;;6.07;;
43504;SDS011;29098;48.184;16.298;2024-03-23T04:07:56;8.52;;;5.30;;
43504;SDS011;29098;48.184;16.298;2024-03-23T04:10:22;10.50;;;5.88;;
43504;SDS011;29098;48.184;16.298;2024-03-23T04:12:47;9.27;;;5.88;;
43504;SDS011;29098;48.184;16.298;2024-03-23T04:15:13;8.82;;;5.28;;
43504;SDS011;29098;48.184;16.298;2024-03-23T04:17:39;8.85;;;5.45;;
43504;SDS011;29098;48.184;16.298;2024-03-23T04:20:07;10.38;;;5.55;;
43504;SDS011;29098;48.184;16.298;2024-03-23T04:22:36;11.52;;;5.82;;
43504;SDS011;29098;48.184;16.298;2024-03-23T04:25:05;10.77;;;6.00;;
43504;SDS011;29098;48.184;16.298;2024-03-23T04:27:35;9.10;;;5.43;;
43504;SDS011;29098;48.184;16.298;2024-03-23T04:30:01;9.05;;;6.05;;
43504;SDS011;29098;48.184;16.298;2024-03-23T04:32:27;10.45;;;6.60;;
43504;SDS011;29098;48.184;16.298;2024-03-23T04:34:53;12.43;;;5.90;;
43504;SDS011;29098;48.184;16.298;2024-03-23T04:37:19;9.88;;;5.68;;
43504;SDS011;29098;48.184;16.298;2024-03-23T04:39:45;8.30;;;5.50;;
43504;SDS011;29098;48.184;16.298;2024-03-23T04:42:11;9.55;;;5.57;;
43504;SDS011;29098;48.184;16.298;2024-03-23T04:44:37;9.77;;;5.40;;
43504;SDS011;29098;48.184;16.298;2024-03-23T04:47:02;8.40;;;5.72;;
43504;SDS011;29098;48.184;16.298;2024-03-23T04:49:28;10.57;;;5.68;;
43504;SDS011;29098;48.184;16.298;2024-03-23T04:51:53;10.52;;;5.30;;
43504;SDS011;29098;48.184;16.298;2024-03-23T04:54:19;8.18;;;5.63;;
43504;SDS011;29098;48.184;16.298;2024-03-23T04:56:45;10.00;;;5.28;;
43504;SDS011;29098;48.184;16.298;2024-03-23T04:59:11;7.40;;;5.45;;
43504;SDS011;29098;48.184;16.298;2024-03-23T05:01:36;9.57;;;5.47;;
43504;SDS011;29098;48.184;16.298;2024-03-23T05:04:03;8.88;;;5.55;;
43504;SDS011;29098;48.184;16.298;2024-03-23T05:06:29;8.85;;;5.22;;
43504;SDS011;29098;48.184;16.298;2024-03-23T05:08:54;9.07;;;5.57;;
43504;SDS011;29098;48.184;16.298;2024-03-23T05:11:20;9.13;;;5.68;;
43504;SDS011;29098;48.184;16.298;2024-03-23T05:13:45;11.27;;;6.05;;
43504;SDS011;29098;48.184;16.298;2024-03-23T05:16:11;7.55;;;5.43;;
43504;SDS011;29098;48.184;16.298;2024-03-23T05:18:37;9.40;;;5.10;;
43504;SDS011;29098;48.184;16.298;2024-03-23T05:21:02;8.23;;;4.75;;
43504;SDS011;29098;48.184;16.298;2024-03-23T05:23:28;9.02;;;4.97;;
43504;SDS011;29098;48.184;16.298;2024-03-23T05:25:54;8.88;;;4.97;;
43504;SDS011;29098;48.184;16.298;2024-03-23T05:28:20;9.98;;;5.32;;
43504;SDS011;29098;48.184;16.298;2024-03-23T05:30:50;9.13;;;5.40;;
43504;SDS011;29098;48.184;16.298;2024-03-23T05:33:19;7.55;;;5.13;;
43504;SDS011;29098;48.184;16.298;2024-03-23T05:35:45;9.60;;;5.53;;
43504;SDS011;29098;48.184;16.298;2024-03-23T05:38:12;10.13;;;5.43;;
43504;SDS011;29098;48.184;16.298;2024-03-23T05:40:40;8.88;;;5.28;;
43504;SDS011;29098;48.184;16.298;2024-03-23T05:43:06;9.32;;;5.55;;
43504;SDS011;29098;48.184;16.298;2024-03-23T05:45:32;11.52;;;5.65;;
43504;SDS011;29098;48.184;16.298;2024-03-23T05:47:57;10.43;;;5.53;;
43504;SDS011;29098;48.184;16.298;2024-03-23T05:50:23;8.25;;;5.50;;
43504;SDS011;29098;48.184;16.298;2024-03-23T05:52:49;13.45;;;5.32;;
43504;SDS011;29098;48.184;16.298;2024-03-23T05:55:15;8.25;;;5.60;;
43504;SDS011;29098;48.184;16.298;2024-03-23T05:57:41;9.27;;;5.50;;
43504;SDS011;29098;48.184;16.298;2024-03-23T06:00:06;11.00;;;5.22;;
43504;SDS011;29098;48.184;16.298;2024-03-23T06:02:38;9.18;;;4.65;;
43504;SDS011;29098;48.184;16.298;2024-03-23T06:05:03;8.10;;;5.65;;
43504;SDS011;29098;48.184;16.298;2024-03-23T06:07:30;9.80;;;5.78;;
43504;SDS011;29098;48.184;16.298;2024-03-23T06:09:57;8.18;;;5.15;;
43504;SDS011;29098;48.184;16.298;2024-03-23T06:12:22;7.90;;;5.10;;
43504;SDS011;29098;48.184;16.298;2024-03-23T06:14:48;7.63;;;5.40;;
43504;SDS011;29098;48.184;16.298;2024-03-23T06:17:14;8.40;;;5.15;;
43504;SDS011;29098;48.184;16.298;2024-03-23T06:19:40;11.35;;;5.38;;
43504;SDS011;29098;48.184;16.298;2024-03-23T06:22:06;7.88;;;5.03;;
43504;SDS011;29098;48.184;16.298;2024-03-23T06:24:31;10.82;;;5.63;;
43504;SDS011;29098;48.184;16.298;2024-03-23T06:26:57;9.18;;;5.30;;
43504;SDS011;29098;48.184;16.298;2024-03-23T06:29:22;9.32;;;5.03;;
43504;SDS011;29098;48.184;16.298;2024-03-23T06:31:57;9.32;;;5.28;;
43504;SDS011;29098;48.184;16.298;2024-03-23T06:34:23;8.13;;;5.13;;
43504;SDS011;29098;48.184;16.298;2024-03-23T06:36:48;11.98;;;6.43;;
43504;SDS011;29098;48.184;16.298;2024-03-23T06:39:14;8.65;;;5.10;;
43504;SDS011;29098;48.184;16.298;2024-03-23T06:41:41;7.85;;;5.20;;
43504;SDS011;29098;48.184;16.298;2024-03-23T06:44:07;13.57;;;7.75;;
43504;SDS011;29098;48.184;16.298;2024-03-23T06:46:33;9.48;;;5.60;;
43504;SDS011;29098;48.184;16.298;2024-03-23T06:48:59;9.68;;;5.07;;
43504;SDS011;29098;48.184;16.298;2024-03-23T06:51:24;8.63;;;5.30;;
43504;SDS011;29098;48.184;16.298;2024-03-23T06:53:50;8.35;;;5.93;;
43504;SDS011;29098;48.184;16.298;2024-03-23T06:56:15;9.80;;;5.88;;
43504;SDS011;29098;48.184;16.298;2024-03-23T06:58:41;13.00;;;5.43;;
43504;SDS011;29098;48.184;16.298;2024-03-23T07:01:07;9.02;;;5.95;;
43504;SDS011;29098;48.184;16.298;2024-03-23T07:03:32;8.90;;;7.00;;
43504;SDS011;29098;48.184;16.298;2024-03-23T07:05:58;11.73;;;6.53;;
43504;SDS011;29098;48.184;16.298;2024-03-23T07:08:24;11.77;;;6.05;;
43504;SDS011;29098;48.184;16.298;2024-03-23T07:10:49;14.25;;;6.47;;
43504;SDS011;29098;48.184;16.298;2024-03-23T07:13:15;10.95;;;5.35;;
43504;SDS011;29098;48.184;16.298;2024-03-23T07:15:40;10.65;;;6.22;;
43504;SDS011;29098;48.184;16.298;2024-03-23T07:18:06;9.20;;;5.65;;
43504;SDS011;29098;48.184;16.298;2024-03-23T07:20:31;11.45;;;6.20;;
43504;SDS011;29098;48.184;16.298;2024-03-23T07:22:57;14.07;;;6.40;;
43504;SDS011;29098;48.184;16.298;2024-03-23T07:25:22;7.65;;;5.30;;
43504;SDS011;29098;48.184;16.298;2024-03-23T07:27:48;9.18;;;6.20;;
43504;SDS011;29098;48.184;16.298;2024-03-23T07:30:14;8.82;;;5.65;;
43504;SDS011;29098;48.184;16.298;2024-03-23T07:32:39;10.32;;;6.22;;
43504;SDS011;29098;48.184;16.298;2024-03-23T07:35:05;8.68;;;6.10;;
43504;SDS011;29098;48.184;16.298;2024-03-23T07:37:31;9.00;;;6.43;;
43504;SDS011;29098;48.184;16.298;2024-03-23T07:39:56;10.48;;;6.22;;
43504;SDS011;29098;48.184;16.298;2024-03-23T07:42:22;8.65;;;5.80;;
43504;SDS011;29098;48.184;16.298;2024-03-23T07:44:48;10.18;;;5.78;;
43504;SDS011;29098;48.184;16.298;2024-03-23T07:47:14;11.77;;;7.05;;
43504;SDS011;29098;48.184;16.298;2024-03-23T07:49:40;11.18;;;6.88;;
43504;SDS011;29098;48.184;16.298;2024-03-23T07:52:05;9.10;;;6.88;;
43504;SDS011;29098;48.184;16.298;2024-03-23T07:54:33;12.93;;;7.22;;
43504;SDS011;29098;48.184;16.298;2024-03-23T07:56:58;10.27;;;7.40;;
43504;SDS011;29098;48.184;16.298;2024-03-23T07:59:24;10.65;;;6.70;;
43504;SDS011;29098;48.184;16.298;2024-03-23T08:01:50;9.15;;;6.35;;
43504;SDS011;29098;48.184;16.298;2024-03-23T08:04:16;9.18;;;6.35;;
43504;SDS011;29098;48.184;16.298;2024-03-23T08:06:41;11.50;;;7.40;;
43504;SDS011;29098;48.184;16.298;2024-03-23T08:09:07;11.15;;;6.55;;
43504;SDS011;29098;48.184;16.298;2024-03-23T08:11:32;16.48;;;7.15;;
43504;SDS011;29098;48.184;16.298;2024-03-23T08:13:59;12.57;;;7.28;;
43504;SDS011;29098;48.184;16.298;2024-03-23T08:16:26;10.95;;;7.43;;
43504;SDS011;29098;48.184;16.298;2024-03-23T08:18:52;9.98;;;7.47;;
43504;SDS011;29098;48.184;16.298;2024-03-23T08:21:18;11.70;;;7.57;;
43504;SDS011;29098;48.184;16.298;2024-03-23T08:23:43;11.75;;;8.45;;
43504;SDS011;29098;48.184;16.298;2024-03-23T08:26:10;10.48;;;7.43;;
43504;SDS011;29098;48.184;16.298;2024-03-23T08:28:38;14.25;;;9.38;;
43504;SDS011;29098;48.184;16.298;2024-03-23T08:31:04;13.20;;;10.27;;
43504;SDS011;29098;48.184;16.298;2024-03-23T08:33:32;13.85;;;9.02;;
43504;SDS011;29098;48.184;16.298;2024-03-23T08:35:58;13.18;;;7.60;;
43504;SDS011;29098;48.184;16.298;2024-03-23T08:38:25;15.35;;;7.85;;
43504;SDS011;29098;48.184;16.298;2024-03-23T08:40:58;11.93;;;8.07;;
43504;SDS011;29098;48.184;16.298;2024-03-23T08:43:35;14.82;;;8.05;;
43504;SDS011;29098;48.184;16.298;2024-03-23T08:46:06;12.48;;;7.72;;
43504;SDS011;29098;48.184;16.298;2024-03-23T08:48:36;11.07;;;7.68;;
43504;SDS011;29098;48.184;16.298;2024-03-23T08:51:03;13.23;;;7.55;;
43504;SDS011;29098;48.184;16.298;2024-03-23T08:53:33;9.93;;;7.15;;
43504;SDS011;29098;48.184;16.298;2024-03-23T08:56:00;10.57;;;6.65;;
43504;SDS011;29098;48.184;16.298;2024-03-23T08:58:27;8.50;;;5.57;;
43504;SDS011;29098;48.184;16.298;2024-03-23T09:00:54;8.27;;;5.82;;
43504;SDS011;29098;48.184;16.298;2024-03-23T09:03:22;9.77;;;5.60;;
43504;SDS011;29098;48.184;16.298;2024-03-23T09:05:48;7.47;;;5.38;;
43504;SDS011;29098;48.184;16.298;2024-03-23T09:08:14;7.32;;;4.53;;
43504;SDS011;29098;48.184;16.298;2024-03-23T09:10:40;9.00;;;5.00;;
43504;SDS011;29098;48.184;16.298;2024-03-23T09:13:06;7.72;;;4.95;;
43504;SDS011;29098;48.184;16.298;2024-03-23T09:15:35;10.25;;;4.88;;
43504;SDS011;29098;48.184;16.298;2024-03-23T09:18:02;8.75;;;5.10;;
43504;SDS011;29098;48.184;16.298;2024-03-23T09:20:28;6.63;;;4.75;;
43504;SDS011;29098;48.184;16.298;2024-03-23T09:22:54;8.30;;;4.65;;
43504;SDS011;29098;48.184;16.298;2024-03-23T09:25:20;8.02;;;4.35;;
43504;SDS011;29098;48.184;16.298;2024-03-23T09:27:48;5.30;;;3.75;;
43504;SDS011;29098;48.184;16.298;2024-03-23T09:30:15;6.00;;;3.95;;
43504;SDS011;29098;48.184;16.298;2024-03-23T09:32:41;8.68;;;3.83;;
43504;SDS011;29098;48.184;16.298;2024-03-23T09:35:08;6.55;;;3.30;;
43504;SDS011;29098;48.184;16.298;2024-03-23T09:37:34;7.85;;;4.20;;
43504;SDS011;29098;48.184;16.298;2024-03-23T09:39:59;5.88;;;3.53;;
43504;SDS011;29098;48.184;16.298;2024-03-23T09:42:25;7.15;;;3.20;;
43504;SDS011;29098;48.184;16.298;2024-03-23T09:44:51;7.20;;;3.38;;
43504;SDS011;29098;48.184;16.298;2024-03-23T09:47:17;5.60;;;2.80;;
43504;SDS011;29098;48.184;16.298;2024-03-23T09:49:43;6.03;;;2.65;;
43504;SDS011;29098;48.184;16.298;2024-03-23T09:52:09;4.35;;;2.45;;
43504;SDS011;29098;48.184;16.298;2024-03-23T09:54:35;4.80;;;2.85;;
43504;SDS011;29098;48.184;16.298;2024-03-23T09:57:01;5.45;;;2.83;;
43504;SDS011;29098;48.184;16.298;2024-03-23T09:59:26;5.15;;;3.20;;
43504;SDS011;29098;48.184;16.298;2024-03-23T10:01:52;5.57;;;2.70;;
43504;SDS011;29098;48.184;16.298;2024-03-23T10:07:19;5.97;;;2.42;;
43504;SDS011;29098;48.184;16.298;2024-03-23T10:09:45;4.15;;;2.25;;
43504;SDS011;29098;48.184;16.298;2024-03-23T10:12:16;4.63;;;2.30;;
43504;SDS011;29098;48.184;16.298;2024-03-23T10:14:43;4.18;;;1.90;;
43504;SDS011;29098;48.184;16.298;2024-03-23T10:19:53;4.28;;;2.20;;
43504;SDS011;29098;48.184;16.298;2024-03-23T10:22:23;5.40;;;2.33;;
43504;SDS011;29098;48.184;16.298;2024-03-23T10:24:51;6.47;;;2.30;;
43504;SDS011;29098;48.184;16.298;2024-03-23T10:29:44;4.40;;;2.47;;
43504;SDS011;29098;48.184;16.298;2024-03-23T10:32:11;4.72;;;2.20;;
43504;SDS011;29098;48.184;16.298;2024-03-23T10:34:38;5.75;;;2.42;;
43504;SDS011;29098;48.184;16.298;2024-03-23T10:37:04;4.93;;;2.05;;
43504;SDS011;29098;48.184;16.298;2024-03-23T10:39:34;3.80;;;1.92;;
43504;SDS011;29098;48.184;16.298;2024-03-23T10:42:05;5.93;;;2.10;;
43504;SDS011;29098;48.184;16.298;2024-03-23T10:44:32;4.05;;;2.58;;
43504;SDS011;29098;48.184;16.298;2024-03-23T10:46:58;4.50;;;1.90;;
43504;SDS011;29098;48.184;16.298;2024-03-23T10:49:29;4.10;;;1.98;;
43504;SDS011;29098;48.184;16.298;2024-03-23T10:52:02;5.65;;;1.48;;
43504;SDS011;29098;48.184;16.298;2024-03-23T10:54:32;4.03;;;1.70;;
43504;SDS011;29098;48.184;16.298;2024-03-23T10:57:14;4.00;;;1.60;;
43504;SDS011;29098;48.184;16.298;2024-03-23T11:02:09;3.50;;;1.45;;
43504;SDS011;29098;48.184;16.298;2024-03-23T11:04:44;3.80;;;1.40;;
43504;SDS011;29098;48.184;16.298;2024-03-23T11:09:53;3.60;;;1.02;;
43504;SDS011;29098;48.184;16.298;2024-03-23T11:14:51;4.03;;;1.30;;
43504;SDS011;29098;48.184;16.298;2024-03-23T11:17:37;4.10;;;1.70;;
43504;SDS011;29098;48.184;16.298;2024-03-23T11:20:04;3.05;;;1.52;;
43504;SDS011;29098;48.184;16.298;2024-03-23T11:22:40;4.75;;;1.50;;
43504;SDS011;29098;48.184;16.298;2024-03-23T11:27:45;5.28;;;1.58;;
43504;SDS011;29098;48.184;16.298;2024-03-23T11:30:11;3.47;;;1.60;;
43504;SDS011;29098;48.184;16.298;2024-03-23T11:32:47;9.50;;;2.08;;
43504;SDS011;29098;48.184;16.298;2024-03-23T11:35:27;3.38;;;1.90;;
43504;SDS011;29098;48.184;16.298;2024-03-23T11:38:10;2.78;;;1.23;;
43504;SDS011;29098;48.184;16.298;2024-03-23T11:40:37;3.55;;;1.70;;
43504;SDS011;29098;48.184;16.298;2024-03-23T11:43:06;2.42;;;1.35;;
43504;SDS011;29098;48.184;16.298;2024-03-23T11:45:34;4.43;;;1.85;;
43504;SDS011;29098;48.184;16.298;2024-03-23T11:48:16;5.22;;;1.70;;
43504;SDS011;29098;48.184;16.298;2024-03-23T11:50:46;4.90;;;1.70;;
43504;SDS011;29098;48.184;16.298;2024-03-23T11:53:14;4.45;;;1.77;;
43504;SDS011;29098;48.184;16.298;2024-03-23T11:58:08;4.05;;;1.40;;
43504;SDS011;29098;48.184;16.298;2024-03-23T12:00:34;7.22;;;1.70;;
43504;SDS011;29098;48.184;16.298;2024-03-23T12:03:00;4.18;;;1.77;;
43504;SDS011;29098;48.184;16.298;2024-03-23T12:05:27;3.97;;;1.90;;
43504;SDS011;29098;48.184;16.298;2024-03-23T12:07:54;4.13;;;1.65;;
43504;SDS011;29098;48.184;16.298;2024-03-23T12:10:20;5.72;;;2.13;;
43504;SDS011;29098;48.184;16.298;2024-03-23T12:12:45;4.03;;;1.58;;
43504;SDS011;29098;48.184;16.298;2024-03-23T12:15:11;5.13;;;1.38;;
43504;SDS011;29098;48.184;16.298;2024-03-23T12:17:37;2.70;;;1.42;;
43504;SDS011;29098;48.184;16.298;2024-03-23T12:20:04;4.53;;;2.25;;
43504;SDS011;29098;48.184;16.298;2024-03-23T12:22:30;3.85;;;1.90;;
43504;SDS011;29098;48.184;16.298;2024-03-23T12:24:56;5.78;;;2.80;;
43504;SDS011;29098;48.184;16.298;2024-03-23T12:27:23;4.72;;;1.70;;
43504;SDS011;29098;48.184;16.298;2024-03-23T12:29:48;4.55;;;2.00;;
43504;SDS011;29098;48.184;16.298;2024-03-23T12:32:14;4.88;;;2.38;;
43504;SDS011;29098;48.184;16.298;2024-03-23T12:34:41;2.58;;;1.63;;
43504;SDS011;29098;48.184;16.298;2024-03-23T12:37:07;4.57;;;2.13;;
43504;SDS011;29098;48.184;16.298;2024-03-23T12:39:32;3.60;;;1.75;;
43504;SDS011;29098;48.184;16.298;2024-03-23T12:42:00;3.42;;;1.98;;
43504;SDS011;29098;48.184;16.298;2024-03-23T12:44:26;3.53;;;1.85;;
43504;SDS011;29098;48.184;16.298;2024-03-23T12:46:51;5.25;;;1.77;;
43504;SDS011;29098;48.184;16.298;2024-03-23T12:49:17;5.22;;;1.98;;
43504;SDS011;29098;48.184;16.298;2024-03-23T12:52:03;4.63;;;2.05;;
43504;SDS011;29098;48.184;16.298;2024-03-23T12:54:29;9.40;;;2.53;;
43504;SDS011;29098;48.184;16.298;2024-03-23T12:56:56;6.63;;;1.90;;
43504;SDS011;29098;48.184;16.298;2024-03-23T12:59:22;6.82;;;1.95;;
43504;SDS011;29098;48.184;16.298;2024-03-23T13:01:47;3.30;;;1.40;;
43504;SDS011;29098;48.184;16.298;2024-03-23T13:04:13;2.72;;;1.30;;
43504;SDS011;29098;48.184;16.298;2024-03-23T13:06:39;2.60;;;1.48;;
43504;SDS011;29098;48.184;16.298;2024-03-23T13:09:05;2.38;;;1.25;;
43504;SDS011;29098;48.184;16.298;2024-03-23T13:11:30;6.07;;;1.63;;
43504;SDS011;29098;48.184;16.298;2024-03-23T13:13:56;2.45;;;1.20;;
43504;SDS011;29098;48.184;16.298;2024-03-23T13:16:22;2.53;;;1.42;;
43504;SDS011;29098;48.184;16.298;2024-03-23T13:18:48;2.67;;;1.20;;
43504;SDS011;29098;48.184;16.298;2024-03-23T13:21:13;4.57;;;1.20;;
43504;SDS011;29098;48.184;16.298;2024-03-23T13:23:39;2.92;;;1.10;;
43504;SDS011;29098;48.184;16.298;2024-03-23T13:26:07;1.25;;;0.70;;
43504;SDS011;29098;48.184;16.298;2024-03-23T13:28:32;2.55;;;1.10;;
43504;SDS011;29098;48.184;16.298;2024-03-23T13:30:58;2.45;;;0.98;;
43504;SDS011;29098;48.184;16.298;2024-03-23T13:33:28;5.70;;;1.00;;
43504;SDS011;29098;48.184;16.298;2024-03-23T13:35:54;2.58;;;0.93;;
43504;SDS011;29098;48.184;16.298;2024-03-23T13:38:21;1.27;;;0.70;;
43504;SDS011;29098;48.184;16.298;2024-03-23T13:40:53;4.03;;;0.98;;
43504;SDS011;29098;48.184;16.298;2024-03-23T13:43:23;2.45;;;1.02;;
43504;SDS011;29098;48.184;16.298;2024-03-23T13:45:53;2.72;;;1.75;;
43504;SDS011;29098;48.184;16.298;2024-03-23T13:48:20;3.97;;;1.10;;
43504;SDS011;29098;48.184;16.298;2024-03-23T13:50:47;4.95;;;1.10;;
43504;SDS011;29098;48.184;16.298;2024-03-23T13:53:15;3.15;;;1.02;;
43504;SDS011;29098;48.184;16.298;2024-03-23T13:55:47;2.28;;;0.93;;
43504;SDS011;29098;48.184;16.298;2024-03-23T13:58:15;3.83;;;1.83;;
43504;SDS011;29098;48.184;16.298;2024-03-23T14:00:41;2.70;;;0.90;;
43504;SDS011;29098;48.184;16.298;2024-03-23T14:03:10;1.90;;;0.85;;
43504;SDS011;29098;48.184;16.298;2024-03-23T14:05:36;1.58;;;0.85;;
43504;SDS011;29098;48.184;16.298;2024-03-23T14:08:04;1.27;;;0.80;;
43504;SDS011;29098;48.184;16.298;2024-03-23T14:10:30;2.67;;;1.00;;
43504;SDS011;29098;48.184;16.298;2024-03-23T14:12:56;2.28;;;1.10;;
43504;SDS011;29098;48.184;16.298;2024-03-23T14:15:22;1.52;;;0.77;;
43504;SDS011;29098;48.184;16.298;2024-03-23T14:17:48;2.42;;;1.00;;
43504;SDS011;29098;48.184;16.298;2024-03-23T14:20:14;2.38;;;0.93;;
43504;SDS011;29098;48.184;16.298;2024-03-23T14:22:40;1.75;;;1.00;;
43504;SDS011;29098;48.184;16.298;2024-03-23T14:25:06;1.27;;;0.93;;
43504;SDS011;29098;48.184;16.298;2024-03-23T14:27:32;2.72;;;1.30;;
43504;SDS011;29098;48.184;16.298;2024-03-23T14:30:02;2.75;;;1.33;;
43504;SDS011;29098;48.184;16.298;2024-03-23T14:32:30;3.55;;;1.52;;
43504;SDS011;29098;48.184;16.298;2024-03-23T14:34:59;2.08;;;1.10;;
43504;SDS011;29098;48.184;16.298;2024-03-23T14:37:26;3.28;;;1.40;;
43504;SDS011;29098;48.184;16.298;2024-03-23T14:39:51;3.78;;;1.75;;
43504;SDS011;29098;48.184;16.298;2024-03-23T14:42:17;3.45;;;1.33;;
43504;SDS011;29098;48.184;16.298;2024-03-23T14:44:43;3.78;;;1.52;;
43504;SDS011;29098;48.184;16.298;2024-03-23T14:47:09;2.95;;;1.20;;
43504;SDS011;29098;48.184;16.298;2024-03-23T14:49:34;2.95;;;1.40;;
43504;SDS011;29098;48.184;16.298;2024-03-23T14:52:01;3.88;;;1.45;;
43504;SDS011;29098;48.184;16.298;2024-03-23T14:54:26;3.00;;;1.00;;
43504;SDS011;29098;48.184;16.298;2024-03-23T14:56:52;2.45;;;0.95;;
43504;SDS011;29098;48.184;16.298;2024-03-23T14:59:17;3.25;;;1.48;;
43504;SDS011;29098;48.184;16.298;2024-03-23T15:01:42;2.03;;;1.00;;
43504;SDS011;29098;48.184;16.298;2024-03-23T15:04:08;1.83;;;1.00;;
43504;SDS011;29098;48.184;16.298;2024-03-23T15:06:34;1.98;;;0.90;;
43504;SDS011;29098;48.184;16.298;2024-03-23T15:08:59;2.42;;;1.23;;
43504;SDS011;29098;48.184;16.298;2024-03-23T15:11:25;1.77;;;1.05;;
43504;SDS011;29098;48.184;16.298;2024-03-23T15:13:51;3.17;;;1.20;;
43504;SDS011;29098;48.184;16.298;2024-03-23T15:16:17;3.17;;;1.20;;
43504;SDS011;29098;48.184;16.298;2024-03-23T15:18:45;2.78;;;1.40;;
43504;SDS011;29098;48.184;16.298;2024-03-23T15:21:11;2.63;;;0.68;;
43504;SDS011;29098;48.184;16.298;2024-03-23T15:23:37;2.47;;;0.95;;
43504;SDS011;29098;48.184;16.298;2024-03-23T15:26:03;2.40;;;1.17;;
43504;SDS011;29098;48.184;16.298;2024-03-23T15:28:31;2.00;;;1.05;;
43504;SDS011;29098;48.184;16.298;2024-03-23T15:31:05;1.25;;;0.80;;
43504;SDS011;29098;48.184;16.298;2024-03-23T15:33:31;2.58;;;1.10;;
43504;SDS011;29098;48.184;16.298;2024-03-23T15:36:01;2.72;;;1.05;;
43504;SDS011;29098;48.184;16.298;2024-03-23T15:38:30;1.60;;;0.95;;
43504;SDS011;29098;48.184;16.298;2024-03-23T15:40:57;1.88;;;1.08;;
43504;SDS011;29098;48.184;16.298;2024-03-23T15:43:23;2.08;;;1.00;;